createdAt,value
2023-05-12T00:00:33.965Z,37.63
2023-05-12T00:01:34.005Z,37.63
2023-05-12T00:02:34.326Z,37.65
2023-05-12T00:03:34.233Z,37.62
2023-05-12T00:04:34.157Z,37.68
2023-05-12T00:05:34.212Z,37.66
2023-05-12T00:06:34.253Z,37.64
2023-05-12T00:07:34.282Z,37.64
2023-05-12T00:08:34.362Z,37.65
2023-05-12T00:09:34.383Z,37.60
2023-05-12T00:10:34.453Z,37.60
2023-05-12T00:11:34.483Z,37.61
2023-05-12T00:12:34.513Z,37.60
2023-05-12T00:13:34.600Z,37.61
2023-05-12T00:14:34.642Z,37.61
2023-05-12T00:15:34.709Z,37.61
2023-05-12T00:16:34.767Z,37.61
2023-05-12T00:17:34.808Z,37.59
2023-05-12T00:18:34.885Z,37.61
2023-05-12T00:19:34.878Z,37.59
2023-05-12T00:20:34.956Z,37.56
2023-05-12T00:21:35.009Z,37.57
2023-05-12T00:22:35.037Z,37.53
2023-05-12T00:23:35.098Z,37.57
2023-05-12T00:24:35.897Z,37.55
2023-05-12T00:25:35.150Z,37.54
2023-05-12T00:26:35.201Z,37.57
2023-05-12T00:27:35.255Z,37.56
2023-05-12T00:28:35.322Z,37.54
2023-05-12T00:29:35.351Z,37.54
2023-05-12T00:30:35.402Z,37.53
2023-05-12T00:31:35.479Z,37.52
2023-05-12T00:32:35.491Z,37.54
2023-05-12T00:33:35.562Z,37.52
2023-05-12T00:34:35.566Z,37.47
2023-05-12T00:35:35.650Z,37.48
2023-05-12T00:36:35.708Z,37.46
2023-05-12T00:37:35.758Z,37.48
2023-05-12T00:38:35.799Z,37.49
2023-05-12T00:39:35.837Z,37.49
2023-05-12T00:40:35.906Z,37.45
2023-05-12T00:41:35.929Z,37.50
2023-05-12T00:42:35.983Z,37.50
2023-05-12T00:43:36.076Z,37.49
2023-05-12T00:44:36.078Z,37.50
2023-05-12T00:45:36.144Z,37.44
2023-05-12T00:46:36.178Z,37.42
2023-05-12T00:47:36.272Z,37.42
2023-05-12T00:48:36.279Z,37.42
2023-05-12T00:49:36.339Z,37.48
2023-05-12T00:50:36.377Z,37.46
2023-05-12T00:51:36.415Z,37.46
2023-05-12T00:52:36.509Z,37.45
2023-05-12T00:53:48.268Z,37.45
2023-05-12T00:54:37.519Z,37.45
2023-05-12T00:55:36.521Z,37.44
2023-05-12T00:56:36.516Z,37.43
2023-05-12T00:57:36.494Z,37.44
2023-05-12T00:58:36.483Z,37.40
2023-05-12T00:59:36.473Z,37.41
2023-05-12T01:00:36.497Z,37.41
2023-05-12T01:01:36.590Z,37.40
2023-05-12T01:02:36.627Z,37.37
2023-05-12T01:03:36.490Z,37.38
2023-05-12T01:04:36.457Z,37.41
2023-05-12T01:05:36.498Z,37.40
2023-05-12T01:06:36.540Z,37.39
2023-05-12T01:07:36.615Z,37.39
2023-05-12T01:08:36.662Z,37.39
2023-05-12T01:09:36.703Z,37.37
2023-05-12T01:10:36.740Z,37.36
2023-05-12T01:11:36.797Z,37.35
2023-05-12T01:12:36.838Z,37.35
2023-05-12T01:13:36.902Z,37.35
2023-05-12T01:14:36.934Z,37.35
2023-05-12T01:15:36.973Z,37.31
2023-05-12T01:16:37.039Z,37.29
2023-05-12T01:17:37.156Z,37.29
2023-05-12T01:18:37.245Z,37.30
2023-05-12T01:19:37.192Z,37.30
2023-05-12T01:20:37.238Z,37.30
2023-05-12T01:21:37.321Z,37.29
2023-05-12T01:22:37.352Z,37.28
2023-05-12T01:23:37.408Z,37.32
2023-05-12T01:24:37.511Z,37.29
2023-05-12T01:25:37.593Z,37.30
2023-05-12T01:26:37.590Z,37.31
2023-05-12T01:27:37.633Z,37.33
2023-05-12T01:28:37.671Z,37.31
2023-05-12T01:29:37.715Z,37.29
2023-05-12T01:30:37.776Z,37.28
2023-05-12T01:31:37.875Z,37.29
2023-05-12T01:32:37.943Z,37.32
2023-05-12T01:33:37.962Z,37.29
2023-05-12T01:34:37.986Z,37.30
2023-05-12T01:35:38.044Z,37.28
2023-05-12T01:36:38.090Z,37.27
2023-05-12T01:37:38.176Z,37.24
2023-05-12T01:38:38.262Z,37.23
2023-05-12T01:39:38.253Z,37.25
2023-05-12T01:40:38.327Z,37.20
2023-05-12T01:41:38.375Z,37.22
2023-05-12T01:42:38.448Z,37.28
2023-05-12T01:43:38.545Z,37.26
2023-05-12T01:44:38.538Z,37.26
2023-05-12T01:45:38.576Z,37.22
2023-05-12T01:46:38.664Z,37.24
2023-05-12T01:47:38.755Z,37.22
2023-05-12T01:48:38.759Z,37.23
2023-05-12T01:49:38.779Z,37.21
2023-05-12T01:50:38.821Z,37.24
2023-05-12T01:51:38.890Z,37.21
2023-05-12T01:52:38.909Z,37.22
2023-05-12T01:53:38.999Z,37.21
2023-05-12T01:54:39.027Z,37.19
2023-05-12T01:55:39.085Z,37.21
2023-05-12T01:56:39.160Z,37.19
2023-05-12T01:57:39.210Z,37.18
2023-05-12T01:58:39.333Z,37.14
2023-05-12T01:59:39.361Z,37.19
2023-05-12T02:00:39.349Z,37.15
2023-05-12T02:01:39.394Z,37.16
2023-05-12T02:02:41.500Z,37.19
2023-05-12T02:03:39.586Z,37.18
2023-05-12T02:04:39.440Z,37.15
2023-05-12T02:05:39.441Z,37.17
2023-05-12T02:06:39.407Z,37.16
2023-05-12T02:07:39.425Z,37.16
2023-05-12T02:08:39.421Z,37.13
2023-05-12T02:09:39.393Z,37.09
2023-05-12T02:10:39.396Z,37.09
2023-05-12T02:11:39.375Z,37.09
2023-05-12T02:12:39.380Z,37.09
2023-05-12T02:13:39.380Z,37.07
2023-05-12T02:14:39.356Z,37.10
2023-05-12T02:15:39.372Z,37.11
2023-05-12T02:16:39.411Z,37.14
2023-05-12T02:17:39.423Z,37.12
2023-05-12T02:18:39.414Z,37.14
2023-05-12T02:19:39.355Z,37.11
2023-05-12T02:20:39.353Z,37.10
2023-05-12T02:21:39.333Z,37.08
2023-05-12T02:22:39.352Z,37.07
2023-05-12T02:23:39.307Z,37.04
2023-05-12T02:24:39.322Z,37.01
2023-05-12T02:25:39.312Z,37.06
2023-05-12T02:26:39.281Z,37.04
2023-05-12T02:27:39.304Z,37.02
2023-05-12T02:28:39.282Z,37.00
2023-05-12T02:29:39.295Z,37.00
2023-05-12T02:30:39.285Z,36.96
2023-05-12T02:31:39.338Z,37.01
2023-05-12T02:32:39.308Z,37.03
2023-05-12T02:33:39.244Z,37.03
2023-05-12T02:34:39.257Z,37.04
2023-05-12T02:35:39.257Z,37.04
2023-05-12T02:36:39.316Z,37.03
2023-05-12T02:37:39.360Z,37.03
2023-05-12T02:38:39.388Z,37.02
2023-05-12T02:39:39.474Z,37.01
2023-05-12T02:40:39.539Z,37.01
2023-05-12T02:41:39.577Z,36.97
2023-05-12T02:42:39.660Z,36.98
2023-05-12T02:43:39.692Z,37.02
2023-05-12T02:44:39.766Z,37.00
2023-05-12T02:45:39.837Z,37.02
2023-05-12T02:46:39.878Z,37.03
2023-05-12T02:47:39.971Z,36.99
2023-05-12T02:48:40.005Z,36.99
2023-05-12T02:49:40.051Z,37.03
2023-05-12T02:50:40.136Z,37.00
2023-05-12T02:51:40.191Z,37.00
2023-05-12T02:52:40.224Z,37.00
2023-05-12T02:53:40.295Z,37.00
2023-05-12T02:54:40.369Z,36.98
2023-05-12T02:55:40.424Z,37.01
2023-05-12T02:56:40.520Z,36.99
2023-05-12T02:57:40.581Z,36.97
2023-05-12T02:58:40.628Z,36.97
2023-05-12T02:59:40.678Z,36.94
2023-05-12T03:00:40.742Z,36.94
2023-05-12T03:01:40.817Z,36.94
2023-05-12T03:02:40.996Z,36.93
2023-05-12T03:03:41.077Z,36.95
2023-05-12T03:04:40.965Z,36.98
2023-05-12T03:05:41.034Z,36.97
2023-05-12T03:06:41.111Z,36.96
2023-05-12T03:07:41.173Z,36.98
2023-05-12T03:08:41.237Z,36.97
2023-05-12T03:09:41.300Z,36.99
2023-05-12T03:10:41.350Z,36.97
2023-05-12T03:11:41.445Z,36.96
2023-05-12T03:12:41.507Z,36.94
2023-05-12T03:13:41.542Z,36.93
2023-05-12T03:14:41.618Z,36.93
2023-05-12T03:15:41.705Z,36.93
2023-05-12T03:16:41.784Z,36.91
2023-05-12T03:17:41.828Z,36.93
2023-05-12T03:18:41.894Z,36.89
2023-05-12T03:19:41.947Z,36.92
2023-05-12T03:20:42.017Z,36.92
2023-05-12T03:21:42.070Z,36.87
2023-05-12T03:22:42.113Z,36.87
2023-05-12T03:23:42.182Z,36.85
2023-05-12T03:24:42.233Z,36.86
2023-05-12T03:25:42.314Z,36.88
2023-05-12T03:26:42.362Z,36.87
2023-05-12T03:27:42.426Z,36.89
2023-05-12T03:28:42.459Z,36.88
2023-05-12T03:29:42.529Z,36.90
2023-05-12T03:30:42.619Z,36.86
2023-05-12T03:31:42.664Z,36.88
2023-05-12T03:32:42.774Z,36.87
2023-05-12T03:33:42.782Z,36.84
2023-05-12T03:34:42.870Z,36.84
2023-05-12T03:35:42.927Z,36.84
2023-05-12T03:36:42.998Z,36.84
2023-05-12T03:37:43.070Z,36.84
2023-05-12T03:38:43.097Z,36.83
2023-05-12T03:39:43.187Z,36.80
2023-05-12T03:40:43.238Z,36.82
2023-05-12T03:41:43.267Z,36.82
2023-05-12T03:42:43.341Z,36.81
2023-05-12T03:43:43.389Z,36.80
2023-05-12T03:44:43.433Z,36.80
2023-05-12T03:45:43.484Z,36.81
2023-05-12T03:46:43.667Z,36.82
2023-05-12T03:47:43.789Z,36.83
2023-05-12T03:48:43.698Z,36.81
2023-05-12T03:49:43.735Z,36.82
2023-05-12T03:50:43.814Z,36.79
2023-05-12T03:51:43.891Z,36.77
2023-05-12T03:52:43.948Z,36.77
2023-05-12T03:53:43.995Z,36.77
2023-05-12T03:54:44.049Z,36.77
2023-05-12T03:55:44.133Z,36.73
2023-05-12T03:56:44.200Z,36.71
2023-05-12T03:57:44.232Z,36.72
2023-05-12T03:58:44.312Z,36.74
2023-05-12T03:59:44.385Z,36.73
2023-05-12T04:00:44.456Z,36.72
2023-05-12T04:01:44.543Z,36.76
2023-05-12T04:02:44.705Z,36.73
2023-05-12T04:03:44.713Z,36.70
2023-05-12T04:04:44.664Z,36.72
2023-05-12T04:05:44.735Z,36.71
2023-05-12T04:06:44.809Z,36.71
2023-05-12T04:07:44.854Z,36.71
2023-05-12T04:08:44.974Z,36.67
2023-05-12T04:09:45.011Z,36.67
2023-05-12T04:10:45.078Z,36.69
2023-05-12T04:11:45.182Z,36.69
2023-05-12T04:12:45.207Z,36.69
2023-05-12T04:13:45.259Z,36.71
2023-05-12T04:14:45.357Z,36.70
2023-05-12T04:15:45.420Z,36.68
2023-05-12T04:16:45.508Z,36.66
2023-05-12T04:17:45.574Z,36.67
2023-05-12T04:18:45.618Z,36.67
2023-05-12T04:19:45.638Z,36.63
2023-05-12T04:20:45.702Z,36.67
2023-05-12T04:21:45.770Z,36.66
2023-05-12T04:22:45.834Z,36.63
2023-05-12T04:23:45.882Z,36.64
2023-05-12T04:24:45.931Z,36.65
2023-05-12T04:25:45.984Z,36.63
2023-05-12T04:26:46.069Z,36.64
2023-05-12T04:27:46.151Z,36.66
2023-05-12T04:28:46.217Z,36.61
2023-05-12T04:29:46.261Z,36.67
2023-05-12T04:30:46.326Z,36.65
2023-05-12T04:31:46.421Z,36.63
2023-05-12T04:32:46.482Z,36.65
2023-05-12T04:33:48.345Z,36.63
2023-05-12T04:34:46.614Z,36.63
2023-05-12T04:35:46.663Z,36.59
2023-05-12T04:36:46.719Z,36.59
2023-05-12T04:37:46.796Z,36.60
2023-05-12T04:38:46.836Z,36.60
2023-05-12T04:39:46.949Z,36.60
2023-05-12T04:40:46.981Z,36.58
2023-05-12T04:41:47.021Z,36.61
2023-05-12T04:42:47.114Z,36.59
2023-05-12T04:44:47.156Z,36.60
2023-05-12T04:45:47.232Z,36.60
2023-05-12T04:46:47.161Z,36.57
2023-05-12T04:47:47.179Z,36.56
2023-05-12T04:48:47.172Z,36.60
2023-05-12T04:49:47.145Z,36.59
2023-05-12T04:50:47.108Z,36.57
2023-05-12T04:51:47.162Z,36.56
2023-05-12T04:52:47.115Z,36.59
2023-05-12T04:53:47.110Z,36.60
2023-05-12T04:54:47.117Z,36.59
2023-05-12T04:55:47.097Z,36.57
2023-05-12T04:56:47.094Z,36.58
2023-05-12T04:57:47.082Z,36.57
2023-05-12T04:58:47.082Z,36.53
2023-05-12T04:59:47.086Z,36.47
2023-05-12T05:00:54.159Z,36.49
2023-05-12T05:01:47.182Z,36.45
2023-05-12T05:02:47.175Z,36.45
2023-05-12T05:03:47.161Z,36.49
2023-05-12T05:04:47.050Z,36.43
2023-05-12T05:05:47.027Z,36.45
2023-05-12T05:06:47.009Z,36.39
2023-05-12T05:07:47.010Z,36.40
2023-05-12T05:08:47.039Z,36.38
2023-05-12T05:09:47.004Z,36.39
2023-05-12T05:10:46.985Z,36.40
2023-05-12T05:11:46.994Z,36.34
2023-05-12T05:12:46.961Z,36.27
2023-05-12T05:13:46.949Z,36.28
2023-05-12T05:14:47.021Z,36.32
2023-05-12T05:15:46.951Z,36.32
2023-05-12T05:16:46.934Z,36.28
2023-05-12T05:17:47.041Z,36.34
2023-05-12T05:18:47.095Z,36.30
2023-05-12T05:19:57.518Z,36.30
2023-05-12T05:20:57.276Z,36.29
2023-05-12T05:21:46.921Z,36.37
2023-05-12T05:22:46.919Z,36.30
2023-05-12T05:23:46.912Z,36.34
2023-05-12T05:24:46.930Z,36.14
2023-05-12T05:25:46.912Z,36.06
2023-05-12T05:26:46.937Z,36.03
2023-05-12T05:27:46.894Z,36.05
2023-05-12T05:28:46.874Z,35.83
2023-05-12T05:29:46.890Z,35.81
2023-05-12T05:30:46.914Z,35.97
2023-05-12T05:31:46.977Z,35.83
2023-05-12T05:32:46.946Z,35.88
2023-05-12T05:33:46.853Z,35.92
2023-05-12T05:34:46.858Z,36.02
2023-05-12T05:35:46.840Z,35.52
2023-05-12T05:36:46.802Z,34.97
2023-05-12T05:37:46.859Z,35.32
2023-05-12T05:38:46.798Z,34.85
2023-05-12T05:39:47.147Z,35.46
2023-05-12T05:40:53.539Z,35.39
2023-05-12T05:41:47.816Z,35.99
2023-05-12T05:42:46.781Z,35.88
2023-05-12T05:43:46.798Z,35.11
2023-05-12T05:44:46.761Z,35.76
2023-05-12T05:45:55.626Z,36.17
2023-05-12T05:46:46.759Z,36.96
2023-05-12T05:47:46.813Z,37.01
2023-05-12T05:48:46.738Z,36.68
2023-05-12T05:49:46.746Z,36.36
2023-05-12T05:50:46.759Z,36.80
2023-05-12T05:51:46.728Z,37.06
2023-05-12T05:52:46.737Z,37.53
2023-05-12T05:53:46.706Z,37.29
2023-05-12T05:54:46.729Z,37.38
2023-05-12T05:55:47.193Z,37.51
2023-05-12T05:56:46.695Z,37.79
2023-05-12T05:57:46.731Z,37.92
2023-05-12T05:58:46.753Z,38.34
2023-05-12T05:59:46.702Z,38.33
2023-05-12T06:00:46.702Z,38.25
2023-05-12T06:01:46.721Z,38.74
2023-05-12T06:02:46.957Z,38.82
2023-05-12T06:03:46.715Z,38.92
2023-05-12T06:04:46.634Z,39.09
2023-05-12T06:05:46.725Z,39.24
2023-05-12T06:06:46.647Z,39.73
2023-05-12T06:07:46.636Z,39.32
2023-05-12T06:08:46.615Z,39.94
2023-05-12T06:09:46.605Z,39.67
2023-05-12T06:10:46.589Z,39.63
2023-05-12T06:11:46.581Z,39.66
2023-05-12T06:12:46.638Z,39.62
2023-05-12T06:13:46.597Z,39.84
2023-05-12T06:14:46.601Z,39.72
2023-05-12T06:15:46.608Z,39.22
2023-05-12T06:16:46.632Z,39.33
2023-05-12T06:17:46.612Z,39.31
2023-05-12T06:18:47.170Z,39.60
2023-05-12T06:19:46.570Z,39.76
2023-05-12T06:20:46.567Z,39.83
2023-05-12T06:21:46.531Z,39.84
2023-05-12T06:22:46.530Z,40.08
2023-05-12T06:23:46.511Z,40.47
2023-05-12T06:24:46.549Z,40.44
2023-05-12T06:25:46.631Z,40.49
2023-05-12T06:26:46.518Z,40.45
2023-05-12T06:27:46.493Z,40.60
2023-05-12T06:28:46.536Z,40.74
2023-05-12T06:29:46.482Z,40.81
2023-05-12T06:30:46.477Z,40.79
2023-05-12T06:31:46.536Z,40.63
2023-05-12T06:32:46.574Z,40.90
2023-05-12T06:33:46.471Z,40.80
2023-05-12T06:34:46.476Z,40.90
2023-05-12T06:35:46.472Z,41.38
2023-05-12T06:36:46.493Z,41.46
2023-05-12T06:37:46.525Z,40.09
2023-05-12T06:38:46.614Z,40.08
2023-05-12T06:39:46.615Z,39.33
2023-05-12T06:40:47.134Z,38.72
2023-05-12T06:41:46.739Z,39.15
2023-05-12T06:42:46.809Z,39.73
2023-05-12T06:43:46.837Z,39.57
2023-05-12T06:44:47.688Z,38.83
2023-05-12T06:45:47.012Z,39.39
2023-05-12T06:46:47.100Z,38.71
2023-05-12T06:47:47.196Z,39.73
2023-05-12T06:48:47.138Z,40.24
2023-05-12T06:49:47.188Z,39.81
2023-05-12T06:50:47.261Z,39.74
2023-05-12T06:51:47.420Z,39.82
2023-05-12T06:52:47.427Z,39.71
2023-05-12T06:53:47.493Z,38.47
2023-05-12T06:54:47.483Z,38.10
2023-05-12T06:55:47.550Z,37.71
2023-05-12T06:56:47.643Z,37.29
2023-05-12T06:57:47.702Z,36.79
2023-05-12T06:58:47.665Z,36.46
2023-05-12T06:59:47.699Z,36.23
2023-05-12T07:00:47.752Z,35.66
2023-05-12T07:01:47.762Z,35.72
2023-05-12T07:02:47.720Z,35.56
2023-05-12T07:03:47.677Z,35.48
2023-05-12T07:04:47.743Z,35.66
2023-05-12T07:05:47.737Z,35.45
2023-05-12T07:06:47.726Z,35.38
2023-05-12T07:07:47.804Z,35.58
2023-05-12T07:08:47.789Z,35.15
2023-05-12T07:09:47.817Z,35.22
2023-05-12T07:10:48.557Z,35.06
2023-05-12T07:11:47.874Z,35.28
2023-05-12T07:12:47.858Z,36.45
2023-05-12T07:13:47.884Z,36.65
2023-05-12T07:14:47.949Z,37.29
2023-05-12T07:15:47.962Z,35.00
2023-05-12T07:16:48.005Z,37.23
2023-05-12T07:17:48.129Z,37.04
2023-05-12T07:18:48.081Z,36.96
2023-05-12T07:19:48.106Z,36.96
2023-05-12T07:20:48.183Z,40.14
2023-05-12T07:21:48.152Z,39.31
2023-05-12T07:22:48.189Z,38.25
2023-05-12T07:23:48.200Z,37.94
2023-05-12T07:24:48.271Z,38.06
2023-05-12T07:25:48.247Z,37.80
2023-05-12T07:26:48.250Z,37.21
2023-05-12T07:27:48.269Z,37.05
2023-05-12T07:28:48.270Z,37.13
2023-05-12T07:29:48.263Z,38.05
2023-05-12T07:30:48.296Z,37.94
2023-05-12T07:31:48.312Z,37.82
2023-05-12T07:32:48.364Z,38.00
2023-05-12T07:33:48.309Z,38.62
2023-05-12T07:34:48.347Z,39.50
2023-05-12T07:35:48.371Z,39.34
2023-05-12T07:36:48.378Z,39.79
2023-05-12T07:37:48.361Z,39.08
2023-05-12T07:38:48.400Z,38.90
2023-05-12T07:39:48.376Z,38.94
2023-05-12T07:40:48.639Z,37.89
2023-05-12T07:41:48.365Z,39.14
2023-05-12T07:42:48.397Z,38.37
2023-05-12T07:43:48.349Z,38.17
2023-05-12T07:44:48.349Z,38.45
2023-05-12T07:45:48.390Z,38.70
2023-05-12T07:46:48.437Z,39.18
2023-05-12T07:47:48.405Z,39.03
2023-05-12T07:48:48.408Z,39.28
2023-05-12T07:49:48.451Z,38.94
2023-05-12T07:50:48.671Z,39.49
2023-05-12T07:51:48.565Z,39.24
2023-05-12T07:52:48.610Z,39.24
2023-05-12T07:53:48.650Z,39.28
2023-05-12T07:54:48.765Z,38.94
2023-05-12T07:55:48.816Z,38.41
2023-05-12T07:56:48.873Z,38.34
2023-05-12T07:57:48.934Z,38.73
2023-05-12T07:58:49.701Z,38.77
2023-05-12T07:59:49.017Z,38.96
2023-05-12T08:00:49.256Z,39.07
2023-05-12T08:01:49.170Z,38.66
2023-05-12T08:02:49.371Z,39.16
2023-05-12T08:03:49.322Z,39.12
2023-05-12T08:04:49.459Z,38.80
2023-05-12T08:05:49.383Z,38.95
2023-05-12T08:06:49.445Z,39.07
2023-05-12T08:07:49.472Z,39.19
2023-05-12T08:08:49.534Z,39.27
2023-05-12T08:09:49.631Z,39.25
2023-05-12T08:10:49.682Z,39.13
2023-05-12T08:11:51.428Z,39.07
2023-05-12T08:12:49.820Z,39.09
2023-05-12T08:13:49.873Z,39.03
2023-05-12T08:14:50.087Z,39.08
2023-05-12T08:15:49.952Z,39.07
2023-05-12T08:16:50.228Z,39.07
2023-05-12T08:17:50.091Z,39.10
2023-05-12T08:18:50.092Z,39.08
2023-05-12T08:19:50.119Z,39.09
2023-05-12T08:20:50.755Z,39.08
2023-05-12T08:21:50.263Z,39.09
2023-05-12T08:22:50.270Z,39.06
2023-05-12T08:23:50.355Z,39.03
2023-05-12T08:24:50.353Z,39.01
2023-05-12T08:25:50.449Z,39.01
2023-05-12T08:26:50.426Z,39.01
2023-05-12T08:27:50.515Z,38.97
2023-05-12T08:28:50.552Z,38.99
2023-05-12T08:29:50.594Z,38.98
2023-05-12T08:30:50.630Z,38.65
2023-05-12T08:31:50.664Z,38.23
2023-05-12T08:32:50.821Z,38.32
2023-05-12T08:33:59.457Z,38.45
2023-05-12T08:34:51.805Z,38.48
2023-05-12T08:35:50.822Z,38.45
2023-05-12T08:36:50.834Z,38.38
2023-05-12T08:37:50.717Z,38.38
2023-05-12T08:38:50.754Z,38.28
2023-05-12T08:39:50.711Z,38.36
2023-05-12T08:40:50.702Z,38.38
2023-05-12T08:41:50.745Z,38.36
2023-05-12T08:42:50.922Z,38.15
2023-05-12T08:43:50.659Z,38.18
2023-05-12T08:44:50.655Z,38.14
2023-05-12T08:45:50.651Z,38.26
2023-05-12T08:46:50.815Z,38.11
2023-05-12T08:47:50.749Z,38.19
2023-05-12T08:48:50.799Z,38.25
2023-05-12T08:49:52.453Z,38.12
2023-05-12T08:50:50.845Z,37.92
2023-05-12T08:51:57.801Z,37.45
2023-05-12T08:52:51.912Z,38.01
2023-05-12T08:53:51.619Z,38.93
2023-05-12T08:54:55.989Z,38.18
2023-05-12T08:57:09.596Z,38.13
2023-05-12T08:57:50.892Z,37.56
2023-05-12T08:58:50.869Z,36.19
2023-05-12T08:59:50.903Z,36.80
2023-05-12T09:00:50.938Z,36.29
2023-05-12T09:01:50.865Z,36.05
2023-05-12T09:02:53.997Z,35.53
2023-05-12T09:03:50.932Z,36.00
2023-05-12T09:04:50.880Z,36.55
2023-05-12T09:05:50.813Z,36.56
2023-05-12T09:06:51.222Z,36.70
2023-05-12T09:07:50.802Z,37.05
2023-05-12T09:08:51.914Z,35.58
2023-05-12T09:09:50.866Z,36.10
2023-05-12T09:10:50.753Z,36.87
2023-05-12T09:11:50.801Z,36.64
2023-05-12T09:12:50.776Z,35.53
2023-05-12T09:13:50.766Z,35.84
2023-05-12T09:14:50.765Z,36.36
2023-05-12T09:15:50.799Z,36.61
2023-05-12T09:16:50.857Z,36.14
2023-05-12T09:17:50.795Z,36.65
2023-05-12T09:18:50.853Z,35.48
2023-05-12T09:19:50.732Z,35.85
2023-05-12T09:20:50.792Z,35.80
2023-05-12T09:21:50.734Z,36.49
2023-05-12T09:22:50.709Z,35.33
2023-05-12T09:23:50.709Z,35.42
2023-05-12T09:24:50.748Z,34.86
2023-05-12T09:25:50.693Z,35.64
2023-05-12T09:26:50.861Z,35.77
2023-05-12T09:27:50.697Z,34.78
2023-05-12T09:28:50.672Z,35.94
2023-05-12T09:29:58.549Z,36.27
2023-05-12T09:30:51.685Z,35.46
2023-05-12T09:31:50.732Z,35.77
2023-05-12T09:32:50.714Z,34.79
2023-05-12T09:33:50.626Z,35.78
2023-05-12T09:34:50.641Z,35.97
2023-05-12T09:35:50.704Z,35.94
2023-05-12T09:36:50.673Z,35.93
2023-05-12T09:37:50.630Z,35.65
2023-05-12T09:38:50.670Z,35.24
2023-05-12T09:39:50.656Z,35.61
2023-05-12T09:40:50.837Z,34.94
2023-05-12T09:41:50.747Z,34.53
2023-05-12T09:42:51.218Z,33.95
2023-05-12T09:43:50.846Z,34.33
2023-05-12T09:44:51.747Z,33.30
2023-05-12T09:45:50.968Z,34.02
2023-05-12T09:46:51.315Z,34.32
2023-05-12T09:47:50.991Z,34.51
2023-05-12T09:48:51.118Z,34.65
2023-05-12T09:49:51.762Z,34.23
2023-05-12T09:50:51.151Z,34.18
2023-05-12T09:51:51.073Z,34.34
2023-05-12T09:52:51.230Z,33.77
2023-05-12T09:53:51.087Z,33.94
2023-05-12T09:54:51.088Z,34.36
2023-05-12T09:55:51.150Z,33.63
2023-05-12T09:56:51.625Z,34.15
2023-05-12T09:57:51.188Z,34.16
2023-05-12T09:58:51.272Z,34.63
2023-05-12T09:59:51.384Z,32.85
2023-05-12T10:01:12.806Z,32.59
2023-05-12T10:01:52.449Z,32.94
2023-05-12T10:02:51.766Z,32.50
2023-05-12T10:03:51.416Z,32.13
2023-05-12T10:04:52.278Z,32.32
2023-05-12T10:05:51.360Z,32.70
2023-05-12T10:06:51.337Z,33.39
2023-05-12T10:07:51.339Z,32.89
2023-05-12T10:08:51.338Z,33.12
2023-05-12T10:09:51.333Z,33.54
2023-05-12T10:10:51.354Z,33.62
2023-05-12T10:11:52.859Z,34.08
2023-05-12T10:12:51.460Z,33.42
2023-05-12T10:13:51.484Z,33.04
2023-05-12T10:14:51.592Z,34.83
2023-05-12T10:15:51.623Z,33.69
2023-05-12T10:16:51.804Z,33.70
2023-05-12T10:17:53.786Z,34.03
2023-05-12T10:18:51.834Z,33.76
2023-05-12T10:19:51.905Z,32.64
2023-05-12T10:20:51.933Z,33.29
2023-05-12T10:21:51.987Z,33.16
2023-05-12T10:22:52.263Z,33.78
2023-05-12T10:23:52.111Z,33.34
2023-05-12T10:24:53.754Z,33.93
2023-05-12T10:25:52.190Z,33.75
2023-05-12T10:26:52.271Z,33.45
2023-05-12T10:27:52.723Z,33.69
2023-05-12T10:28:52.417Z,33.74
2023-05-12T10:29:53.645Z,32.91
2023-05-12T10:30:52.536Z,33.65
2023-05-12T10:31:52.676Z,33.93
2023-05-12T10:32:52.655Z,34.05
2023-05-12T10:33:52.692Z,34.53
2023-05-12T10:34:52.733Z,34.67
2023-05-12T10:35:52.778Z,34.42
2023-05-12T10:36:52.860Z,34.54
2023-05-12T10:37:53.268Z,34.40
2023-05-12T10:38:53.004Z,34.44
2023-05-12T10:39:53.080Z,34.41
2023-05-12T10:40:53.103Z,34.47
2023-05-12T10:41:53.156Z,34.50
2023-05-12T10:42:53.203Z,34.58
2023-05-12T10:43:53.265Z,34.63
2023-05-12T10:44:53.406Z,34.68
2023-05-12T10:45:53.385Z,34.73
2023-05-12T10:46:53.473Z,34.81
2023-05-12T10:47:53.525Z,34.75
2023-05-12T10:48:53.580Z,34.78
2023-05-12T10:49:53.612Z,34.78
2023-05-12T10:50:53.684Z,34.79
2023-05-12T10:51:53.757Z,34.80
2023-05-12T10:52:54.247Z,34.82
2023-05-12T10:53:54.786Z,34.81
2023-05-12T10:54:53.965Z,34.82
2023-05-12T10:55:54.176Z,34.79
2023-05-12T10:56:54.291Z,34.81
2023-05-12T10:57:54.731Z,34.82
2023-05-12T10:59:54.486Z,34.84
2023-05-12T11:00:55.168Z,34.86
2023-05-12T11:01:54.909Z,34.83
2023-05-12T11:02:55.762Z,34.82
2023-05-12T11:03:54.552Z,34.83
2023-05-12T11:04:54.508Z,34.87
2023-05-12T11:05:54.480Z,34.85
2023-05-12T11:06:54.583Z,34.87
2023-05-12T11:07:54.698Z,34.89
2023-05-12T11:08:55.208Z,34.90
2023-05-12T11:09:59.080Z,34.94
2023-05-12T11:10:55.433Z,34.95
2023-05-12T11:11:54.424Z,34.95
2023-05-12T11:12:54.314Z,34.95
2023-05-12T11:13:54.345Z,34.98
2023-05-12T11:14:54.296Z,34.96
2023-05-12T11:15:54.314Z,34.94
2023-05-12T11:16:54.371Z,34.93
2023-05-12T11:17:54.436Z,34.92
2023-05-12T11:18:54.409Z,34.94
2023-05-12T11:19:54.333Z,34.96
2023-05-12T11:20:57.260Z,34.94
2023-05-12T11:21:54.383Z,34.95
2023-05-12T11:22:54.416Z,34.90
2023-05-12T11:23:54.359Z,34.90
2023-05-12T11:24:54.370Z,34.94
2023-05-12T11:25:54.381Z,34.94
2023-05-12T11:26:54.342Z,34.94
2023-05-12T11:27:54.308Z,34.96
2023-05-12T11:28:54.407Z,34.93
2023-05-12T11:29:54.313Z,34.91
2023-05-12T11:30:55.518Z,34.88
2023-05-12T11:31:54.343Z,34.87
2023-05-12T11:32:54.799Z,34.87
2023-05-12T11:34:08.312Z,34.85
2023-05-12T11:34:55.303Z,34.82
2023-05-12T11:35:54.275Z,34.79
2023-05-12T11:36:54.274Z,34.74
2023-05-12T11:37:54.308Z,34.71
2023-05-12T11:38:54.286Z,34.69
2023-05-12T11:39:54.230Z,34.62
2023-05-12T11:40:54.254Z,34.68
2023-05-12T11:42:02.078Z,34.64
2023-05-12T11:42:55.233Z,34.64
2023-05-12T11:43:54.764Z,34.61
2023-05-12T11:44:54.217Z,34.56
2023-05-12T11:45:54.228Z,34.56
2023-05-12T11:46:54.178Z,34.52
2023-05-12T11:47:54.196Z,34.47
2023-05-12T11:48:54.183Z,34.43
2023-05-12T11:49:54.204Z,34.38
2023-05-12T11:50:54.167Z,34.32
2023-05-12T11:51:54.172Z,34.26
2023-05-12T11:52:54.219Z,34.28
2023-05-12T11:53:54.260Z,34.25
2023-05-12T11:54:54.341Z,34.26
2023-05-12T11:55:54.425Z,34.28
2023-05-12T11:56:54.449Z,34.26
2023-05-12T11:57:54.519Z,34.27
2023-05-12T11:58:54.569Z,34.21
2023-05-12T11:59:54.610Z,34.19
2023-05-12T12:00:54.709Z,34.15
2023-05-12T12:01:54.715Z,34.12
2023-05-12T12:02:54.905Z,34.14
2023-05-12T12:03:54.898Z,34.19
2023-05-12T12:04:55.027Z,34.13
2023-05-12T12:05:54.954Z,34.16
2023-05-12T12:06:55.042Z,34.15
2023-05-12T12:07:55.069Z,34.17
2023-05-12T12:08:55.161Z,34.18
2023-05-12T12:09:55.224Z,34.18
2023-05-12T12:10:55.213Z,34.26
2023-05-12T12:11:55.349Z,34.25
2023-05-12T12:12:55.331Z,34.29
2023-05-12T12:13:55.456Z,34.32
2023-05-12T12:14:55.458Z,34.34
2023-05-12T12:15:55.534Z,34.36
2023-05-12T12:16:55.656Z,34.33
2023-05-12T12:17:55.702Z,34.37
2023-05-12T12:18:55.741Z,34.36
2023-05-12T12:19:55.800Z,34.37
2023-05-12T12:20:55.826Z,34.38
2023-05-12T12:21:55.876Z,34.41
2023-05-12T12:22:55.975Z,34.42
2023-05-12T12:23:56.003Z,34.44
2023-05-12T12:24:56.103Z,34.43
2023-05-12T12:25:56.142Z,34.44
2023-05-12T12:26:56.220Z,34.46
2023-05-12T12:27:56.250Z,34.47
2023-05-12T12:28:56.314Z,34.46
2023-05-12T12:29:56.374Z,34.46
2023-05-12T12:30:56.416Z,34.42
2023-05-12T12:31:56.494Z,34.45
2023-05-12T12:32:56.610Z,34.44
2023-05-12T12:33:56.568Z,34.45
2023-05-12T12:34:56.608Z,34.45
2023-05-12T12:35:56.725Z,34.46
2023-05-12T12:36:56.740Z,34.45
2023-05-12T12:37:56.807Z,34.43
2023-05-12T12:38:56.915Z,34.45
2023-05-12T12:39:56.919Z,34.46
2023-05-12T12:40:57.089Z,34.45
2023-05-12T12:41:57.054Z,34.44
2023-05-12T12:42:57.117Z,34.44
2023-05-12T12:43:57.140Z,34.42
2023-05-12T12:44:57.191Z,34.45
2023-05-12T12:45:57.289Z,34.43
2023-05-12T12:46:57.415Z,34.43
2023-05-12T12:47:57.494Z,34.44
2023-05-12T12:48:57.480Z,34.44
2023-05-12T12:49:57.494Z,34.42
2023-05-12T12:50:57.571Z,34.44
2023-05-12T12:51:57.617Z,34.44
2023-05-12T12:52:57.690Z,34.44
2023-05-12T12:53:57.740Z,34.41
2023-05-12T12:54:57.769Z,34.41
2023-05-12T12:55:57.855Z,34.45